createdAt,value
2022-08-26T00:00:21.912Z,22.30
2022-08-26T00:02:50.649Z,22.30
2022-08-26T00:05:20.441Z,22.40
2022-08-26T00:07:50.001Z,22.30
2022-08-26T00:10:20.073Z,22.40
2022-08-26T00:12:51.485Z,22.40
2022-08-26T00:15:22.153Z,22.40
2022-08-26T00:17:51.845Z,22.30
2022-08-26T00:20:22.152Z,22.30
2022-08-26T00:22:50.746Z,22.40
2022-08-26T00:25:19.663Z,22.40
2022-08-26T00:27:48.673Z,22.30
2022-08-26T00:30:18.363Z,22.30
2022-08-26T00:32:53.213Z,22.20
2022-08-26T00:35:22.322Z,22.30
2022-08-26T00:37:51.906Z,22.20
2022-08-26T00:40:22.189Z,22.20
2022-08-26T00:43:09.695Z,22.20
2022-08-26T00:45:41.249Z,22.20
2022-08-26T00:48:13.614Z,22.20
2022-08-26T00:50:43.971Z,22.10
2022-08-26T00:53:24.242Z,22.10
2022-08-26T00:55:58.849Z,22.10
2022-08-26T00:58:48.150Z,22.10
2022-08-26T01:01:18.685Z,22.10
2022-08-26T01:04:11.826Z,22.00
2022-08-26T01:06:41.133Z,22.00
2022-08-26T01:09:13.263Z,22.00
2022-08-26T01:11:42.185Z,22.00
2022-08-26T01:14:12.694Z,22.00
2022-08-26T01:16:42.323Z,21.90
2022-08-26T01:19:19.689Z,21.90
2022-08-26T01:21:49.979Z,21.90
2022-08-26T01:24:20.272Z,21.90
2022-08-26T01:26:49.934Z,21.90
2022-08-26T01:29:20.185Z,21.90
2022-08-26T01:31:51.059Z,21.90
2022-08-26T01:34:23.348Z,21.90
2022-08-26T01:36:56.025Z,21.90
2022-08-26T01:39:45.160Z,21.90
2022-08-26T01:42:15.523Z,21.90
2022-08-26T01:44:46.429Z,21.80
2022-08-26T01:47:17.945Z,21.90
2022-08-26T01:49:47.064Z,21.90
2022-08-26T01:52:18.199Z,21.80
2022-08-26T01:54:52.182Z,21.80
2022-08-26T01:57:23.196Z,21.80
2022-08-26T01:59:53.364Z,21.80
2022-08-26T02:02:22.446Z,21.80
2022-08-26T02:04:55.557Z,21.70
2022-08-26T02:07:24.952Z,21.70
2022-08-26T02:09:57.594Z,21.80
2022-08-26T02:12:27.369Z,21.80
2022-08-26T02:14:58.495Z,21.90
2022-08-26T02:17:30.765Z,21.80
2022-08-26T02:19:59.429Z,21.80
2022-08-26T02:22:28.008Z,21.80
2022-08-26T02:24:59.588Z,21.80
2022-08-26T02:27:32.198Z,21.80
2022-08-26T02:30:03.102Z,21.80
2022-08-26T02:32:51.940Z,21.80
2022-08-26T02:35:21.849Z,21.80
2022-08-26T02:37:50.727Z,21.70
2022-08-26T02:40:28.442Z,21.80
2022-08-26T02:42:57.273Z,21.70
2022-08-26T02:45:26.498Z,21.70
2022-08-26T02:47:56.607Z,21.70
2022-08-26T02:50:25.787Z,21.70
2022-08-26T02:52:54.497Z,21.60
2022-08-26T02:55:25.063Z,21.60
2022-08-26T02:57:53.721Z,21.60
2022-08-26T03:00:22.430Z,21.60
2022-08-26T03:02:52.628Z,21.50
2022-08-26T03:05:24.071Z,21.50
2022-08-26T03:07:53.068Z,21.50
2022-08-26T03:10:22.941Z,21.40
2022-08-26T03:12:53.071Z,21.50
2022-08-26T03:15:22.198Z,21.40
2022-08-26T03:17:50.924Z,21.50
2022-08-26T03:20:19.981Z,21.50
2022-08-26T03:22:49.913Z,21.50
2022-08-26T03:25:19.832Z,21.50
2022-08-26T03:27:48.475Z,21.50
2022-08-26T03:30:36.517Z,21.50
2022-08-26T03:33:05.412Z,21.60
2022-08-26T03:35:34.462Z,21.40
2022-08-26T03:38:03.543Z,21.50
2022-08-26T03:40:33.954Z,21.40
2022-08-26T03:43:02.952Z,21.40
2022-08-26T03:45:33.243Z,21.50
2022-08-26T03:48:02.134Z,21.50
2022-08-26T03:50:31.246Z,21.40
2022-08-26T03:53:03.661Z,21.40
2022-08-26T03:55:33.378Z,21.40
2022-08-26T03:58:02.331Z,21.40
2022-08-26T04:00:32.692Z,21.50
2022-08-26T04:03:03.429Z,21.50
2022-08-26T04:05:32.111Z,21.50
2022-08-26T04:08:00.710Z,21.50
2022-08-26T04:10:29.629Z,21.50
2022-08-26T04:12:58.820Z,21.50
2022-08-26T04:15:28.446Z,21.60
2022-08-26T04:17:58.585Z,21.70
2022-08-26T04:20:45.631Z,21.60
2022-08-26T04:23:14.341Z,21.60
2022-08-26T04:25:45.961Z,21.60
2022-08-26T04:28:15.001Z,21.60
2022-08-26T04:30:43.608Z,21.70
2022-08-26T04:33:14.031Z,21.70
2022-08-26T04:35:44.299Z,21.70
2022-08-26T04:38:13.457Z,21.80
2022-08-26T04:40:46.748Z,21.90
2022-08-26T04:43:31.939Z,21.90
2022-08-26T04:46:02.289Z,21.90
2022-08-26T04:48:51.901Z,22.00
2022-08-26T04:51:28.309Z,22.00
2022-08-26T04:54:16.452Z,22.10
2022-08-26T04:56:46.698Z,22.10
2022-08-26T04:59:18.221Z,22.20
2022-08-26T05:01:47.131Z,22.30
2022-08-26T05:04:19.030Z,22.30
2022-08-26T05:06:47.999Z,22.40
2022-08-26T05:09:18.688Z,22.50
2022-08-26T05:11:48.484Z,22.60
2022-08-26T05:14:21.040Z,22.70
2022-08-26T05:16:51.256Z,22.70
2022-08-26T05:19:21.259Z,22.80
2022-08-26T05:21:49.991Z,22.90
2022-08-26T05:24:18.970Z,23.00
2022-08-26T05:26:48.315Z,23.00
2022-08-26T05:29:16.958Z,23.10
2022-08-26T05:31:45.659Z,23.10
2022-08-26T05:34:14.353Z,23.20
2022-08-26T05:37:02.802Z,23.30
2022-08-26T05:39:33.421Z,23.30
2022-08-26T05:42:04.289Z,23.30
2022-08-26T05:44:55.570Z,23.40
2022-08-26T05:47:23.630Z,23.40
2022-08-26T05:49:52.334Z,23.50
2022-08-26T05:52:24.588Z,23.50
2022-08-26T05:54:55.066Z,23.60
2022-08-26T05:57:23.966Z,23.60
2022-08-26T05:59:53.226Z,23.70
2022-08-26T06:02:22.144Z,23.80
2022-08-26T06:05:09.765Z,23.80
2022-08-26T06:07:57.358Z,23.80
2022-08-26T06:10:32.553Z,23.90
2022-08-26T06:13:09.283Z,24.00
2022-08-26T06:15:42.242Z,24.00
2022-08-26T06:18:11.262Z,24.10
2022-08-26T06:20:43.945Z,24.20
2022-08-26T06:23:45.743Z,24.20
2022-08-26T06:26:15.016Z,24.30
2022-08-26T06:28:45.482Z,24.30
2022-08-26T06:31:14.674Z,24.40
2022-08-26T06:33:43.710Z,24.30
2022-08-26T06:36:17.217Z,24.40
2022-08-26T06:38:49.497Z,24.50
2022-08-26T06:41:21.308Z,24.50
2022-08-26T06:43:50.250Z,24.50
2022-08-26T06:46:19.553Z,24.60
2022-08-26T06:48:49.020Z,24.60
2022-08-26T06:51:18.610Z,24.60
2022-08-26T06:53:49.380Z,24.60
2022-08-26T06:56:19.300Z,24.60
2022-08-26T06:58:48.135Z,24.60
2022-08-26T07:01:18.384Z,24.60
2022-08-26T07:03:49.011Z,24.70
2022-08-26T07:06:19.504Z,24.70
2022-08-26T07:08:49.911Z,24.60
2022-08-26T07:11:19.653Z,24.60
2022-08-26T07:13:48.899Z,24.70
2022-08-26T07:16:19.539Z,24.70
2022-08-26T07:19:17.998Z,24.70
2022-08-26T07:22:04.177Z,24.70
2022-08-26T07:24:35.437Z,24.70
2022-08-26T07:27:05.507Z,24.80
2022-08-26T07:29:52.810Z,24.80
2022-08-26T07:32:24.905Z,24.90
2022-08-26T07:34:54.316Z,24.90
2022-08-26T07:37:23.459Z,25.00
2022-08-26T07:39:53.911Z,25.10
2022-08-26T07:42:22.678Z,25.10
2022-08-26T07:44:52.673Z,25.20
2022-08-26T07:47:25.827Z,25.30
2022-08-26T07:49:55.962Z,25.30
2022-08-26T07:52:27.046Z,25.50
2022-08-26T07:54:58.442Z,25.60
2022-08-26T07:57:27.203Z,25.70
2022-08-26T07:59:55.850Z,25.80
2022-08-26T08:02:26.484Z,25.90
2022-08-26T08:04:55.427Z,26.00
2022-08-26T08:07:38.661Z,26.00
2022-08-26T08:10:15.636Z,26.00
2022-08-26T08:12:44.472Z,26.10
2022-08-26T08:15:14.166Z,26.10
2022-08-26T08:17:44.600Z,26.20
2022-08-26T08:20:13.811Z,26.30
2022-08-26T08:22:43.647Z,26.30
2022-08-26T08:25:13.562Z,26.40
2022-08-26T08:27:45.288Z,26.40
2022-08-26T08:30:14.466Z,26.40
2022-08-26T08:32:43.799Z,26.50
2022-08-26T08:35:13.652Z,26.40
2022-08-26T08:37:43.799Z,26.50
2022-08-26T08:40:13.945Z,26.70
2022-08-26T08:42:47.249Z,26.70
2022-08-26T08:45:17.322Z,26.80
2022-08-26T08:47:50.505Z,27.00
2022-08-26T08:50:25.633Z,26.90
2022-08-26T08:52:57.872Z,27.00
2022-08-26T08:55:30.735Z,27.00
2022-08-26T08:58:04.349Z,27.00
2022-08-26T09:00:39.530Z,27.00
2022-08-26T09:03:12.218Z,27.00
2022-08-26T09:05:48.642Z,27.10
2022-08-26T09:08:19.928Z,27.10
2022-08-26T09:10:51.102Z,27.20
2022-08-26T09:13:25.135Z,27.30
2022-08-26T09:15:58.722Z,27.50
2022-08-26T09:18:33.663Z,27.60
2022-08-26T09:21:03.946Z,27.60
2022-08-26T09:23:35.787Z,27.70
2022-08-26T09:26:14.740Z,27.80
2022-08-26T09:28:47.077Z,27.90
2022-08-26T09:31:21.086Z,27.90
2022-08-26T09:34:00.366Z,28.10
2022-08-26T09:36:39.216Z,28.20
2022-08-26T09:39:25.750Z,28.40
2022-08-26T09:42:06.811Z,28.50
2022-08-26T09:44:52.538Z,28.60
2022-08-26T09:47:23.142Z,28.60
2022-08-26T09:49:58.439Z,28.60
2022-08-26T09:52:28.051Z,28.60
2022-08-26T09:55:01.874Z,28.70
2022-08-26T09:57:33.627Z,28.70
2022-08-26T10:00:24.263Z,28.70
2022-08-26T10:02:57.393Z,28.70
2022-08-26T10:05:42.418Z,28.60
2022-08-26T10:08:21.513Z,28.60
2022-08-26T10:10:53.107Z,28.60
2022-08-26T10:13:25.098Z,28.50
2022-08-26T10:15:59.810Z,28.50
2022-08-26T10:18:34.278Z,28.50
2022-08-26T10:21:07.248Z,28.40
2022-08-26T10:26:15.186Z,28.30
2022-08-26T10:29:07.293Z,28.30
2022-08-26T10:31:40.647Z,28.40
2022-08-26T10:34:10.042Z,28.40
2022-08-26T10:37:15.753Z,28.40
2022-08-26T10:40:01.377Z,28.40
2022-08-26T10:42:35.533Z,28.40
2022-08-26T10:45:27.331Z,28.50
2022-08-26T10:48:02.053Z,28.50
2022-08-26T10:50:33.473Z,28.60
2022-08-26T10:53:03.516Z,28.60
2022-08-26T10:55:37.714Z,28.70
2022-08-26T10:58:27.569Z,28.70
2022-08-26T11:01:17.346Z,28.70
2022-08-26T11:03:58.156Z,28.70
2022-08-26T11:06:46.415Z,28.70
2022-08-26T11:09:36.260Z,28.70
2022-08-26T11:12:10.257Z,28.70
2022-08-26T11:14:53.393Z,28.70
2022-08-26T11:17:42.358Z,28.70
2022-08-26T11:20:32.413Z,28.70
2022-08-26T11:23:16.701Z,28.70
2022-08-26T11:26:00.407Z,28.70
2022-08-26T11:28:33.809Z,28.60
2022-08-26T11:31:02.853Z,28.60
2022-08-26T11:33:59.723Z,28.60
2022-08-26T11:36:38.845Z,28.60
2022-08-26T11:39:28.987Z,28.50
2022-08-26T11:42:00.203Z,28.50
2022-08-26T11:44:29.615Z,28.50
2022-08-26T11:46:59.686Z,28.40
2022-08-26T11:49:29.058Z,28.40
2022-08-26T11:52:11.479Z,28.50
2022-08-26T11:54:40.762Z,28.50
2022-08-26T11:57:14.359Z,28.60
2022-08-26T11:59:43.718Z,28.60
2022-08-26T12:02:16.339Z,28.70
2022-08-26T12:04:49.055Z,28.80
2022-08-26T12:07:24.162Z,29.00
2022-08-26T12:09:56.428Z,29.20
2022-08-26T12:12:26.978Z,29.30
2022-08-26T12:15:14.689Z,29.40
2022-08-26T12:17:44.809Z,29.50
2022-08-26T12:20:21.397Z,29.60
2022-08-26T12:22:53.363Z,29.80
2022-08-26T12:25:25.331Z,29.90
2022-08-26T12:28:00.132Z,30.00
2022-08-26T12:30:31.125Z,30.00
2022-08-26T12:33:22.205Z,30.00
2022-08-26T12:35:56.620Z,30.20
2022-08-26T12:38:27.756Z,30.30
2022-08-26T12:40:57.309Z,30.40
2022-08-26T12:43:39.705Z,30.60
2022-08-26T12:46:08.981Z,30.70
2022-08-26T12:48:39.179Z,30.70
2022-08-26T12:51:08.702Z,30.70
2022-08-26T12:53:43.206Z,30.70
2022-08-26T12:56:26.678Z,30.70
2022-08-26T12:59:02.949Z,30.60
2022-08-26T13:01:38.192Z,30.70
2022-08-26T13:04:08.005Z,30.60
2022-08-26T13:06:36.650Z,30.50
2022-08-26T13:09:26.688Z,30.40
2022-08-26T13:12:29.385Z,30.20
2022-08-26T13:14:58.991Z,30.00
2022-08-26T13:17:28.198Z,29.80
2022-08-26T13:20:03.279Z,29.60
2022-08-26T13:22:32.581Z,29.40
2022-08-26T13:25:02.693Z,29.20
2022-08-26T13:27:31.426Z,29.10
2022-08-26T13:30:00.485Z,28.90
2022-08-26T13:32:29.232Z,28.80
2022-08-26T13:34:58.719Z,28.80
2022-08-26T13:37:35.301Z,28.70
2022-08-26T13:40:07.778Z,28.60
2022-08-26T13:42:36.541Z,28.60
2022-08-26T13:45:05.399Z,28.50
2022-08-26T13:47:34.141Z,28.50
2022-08-26T13:50:02.717Z,28.50
2022-08-26T13:52:34.763Z,28.50
2022-08-26T13:55:04.096Z,28.50
2022-08-26T13:57:34.118Z,28.50
2022-08-26T14:00:03.656Z,28.40
2022-08-26T14:02:38.000Z,28.40
2022-08-26T14:05:07.144Z,28.40
2022-08-26T14:07:35.806Z,28.40
2022-08-26T14:10:05.022Z,28.40
2022-08-26T14:12:35.396Z,28.40
2022-08-26T14:15:04.015Z,28.40
2022-08-26T14:17:33.010Z,28.30
2022-08-26T14:20:01.904Z,28.40
2022-08-26T14:22:34.219Z,28.40
2022-08-26T14:25:04.292Z,28.40
2022-08-26T14:27:36.031Z,28.50
2022-08-26T14:30:05.906Z,28.50
2022-08-26T14:32:34.566Z,28.60
2022-08-26T14:35:03.545Z,28.70
2022-08-26T14:37:32.094Z,28.80
2022-08-26T14:40:00.955Z,28.80
2022-08-26T14:42:31.689Z,28.80
2022-08-26T14:45:02.866Z,28.90
2022-08-26T14:47:31.729Z,28.90
2022-08-26T14:50:02.059Z,28.90
2022-08-26T14:52:51.355Z,28.90
2022-08-26T14:55:19.249Z,28.90
2022-08-26T14:57:47.748Z,28.90
2022-08-26T15:00:18.865Z,28.90
2022-08-26T15:02:47.645Z,28.90
2022-08-26T15:05:16.534Z,28.90
2022-08-26T15:07:45.237Z,28.90
2022-08-26T15:10:15.059Z,28.90
2022-08-26T15:12:44.184Z,28.90
2022-08-26T15:15:13.595Z,29.00
2022-08-26T15:17:44.847Z,29.00
2022-08-26T15:20:13.849Z,29.00
2022-08-26T15:22:43.391Z,29.00
2022-08-26T15:25:13.020Z,29.00
2022-08-26T15:27:47.326Z,28.90
2022-08-26T15:30:16.911Z,28.80
2022-08-26T15:32:47.283Z,28.80
2022-08-26T15:35:16.120Z,28.70
2022-08-26T15:37:44.798Z,28.70
2022-08-26T15:40:14.024Z,28.70
2022-08-26T15:42:42.807Z,28.60
2022-08-26T15:45:13.603Z,28.50
2022-08-26T15:48:01.201Z,28.50
2022-08-26T15:50:30.784Z,28.40
2022-08-26T15:52:59.901Z,28.30
2022-08-26T15:55:28.657Z,28.30
2022-08-26T15:57:57.168Z,28.20
2022-08-26T16:00:26.718Z,28.10
2022-08-26T16:02:56.776Z,28.00
2022-08-26T16:05:25.497Z,27.90
2022-08-26T16:07:54.199Z,27.90
2022-08-26T16:10:22.891Z,27.80
2022-08-26T16:12:51.527Z,27.70
2022-08-26T16:15:22.067Z,27.60
2022-08-26T16:17:50.826Z,27.60
2022-08-26T16:20:20.796Z,27.50
2022-08-26T16:22:49.498Z,27.40
2022-08-26T16:25:18.110Z,27.40
2022-08-26T16:27:46.807Z,27.30
2022-08-26T16:30:17.002Z,27.20
2022-08-26T16:32:45.654Z,27.20
2022-08-26T16:35:14.397Z,27.10
2022-08-26T16:37:44.541Z,27.10
2022-08-26T16:40:13.599Z,27.00
2022-08-26T16:42:42.187Z,27.00
2022-08-26T16:45:11.194Z,26.90
2022-08-26T16:47:39.941Z,26.90
2022-08-26T16:50:09.723Z,26.90
2022-08-26T16:52:38.619Z,26.80
2022-08-26T16:55:09.777Z,26.70
2022-08-26T16:57:38.605Z,26.70
2022-08-26T17:00:09.325Z,26.70
2022-08-26T17:02:38.125Z,26.60
2022-08-26T17:05:07.075Z,26.60
2022-08-26T17:07:36.126Z,26.50
2022-08-26T17:10:06.237Z,26.50
2022-08-26T17:12:36.473Z,26.40
2022-08-26T17:15:05.757Z,26.40
2022-08-26T17:17:34.507Z,26.40
2022-08-26T17:20:06.443Z,26.30
2022-08-26T17:22:35.144Z,26.30
2022-08-26T17:25:03.717Z,26.20
2022-08-26T17:27:32.406Z,26.20
2022-08-26T17:30:02.397Z,26.20
2022-08-26T17:32:31.148Z,26.10
2022-08-26T17:34:59.630Z,26.10
2022-08-26T17:37:28.408Z,26.00
2022-08-26T17:39:57.110Z,26.00
2022-08-26T17:42:29.098Z,26.00
2022-08-26T17:47:55.663Z,26.00
2022-08-26T17:50:24.978Z,25.90
2022-08-26T17:52:53.501Z,25.90
2022-08-26T17:55:22.258Z,25.90
2022-08-26T17:57:53.432Z,25.90
2022-08-26T18:00:26.605Z,25.90
2022-08-26T18:02:55.406Z,25.90
2022-08-26T18:05:24.980Z,25.90
2022-08-26T18:07:53.572Z,25.80
2022-08-26T18:10:22.217Z,25.80
2022-08-26T18:12:50.812Z,25.80
2022-08-26T18:15:19.617Z,25.60
2022-08-26T18:17:49.573Z,25.70
2022-08-26T18:20:19.097Z,25.70
2022-08-26T18:22:48.336Z,25.60
2022-08-26T18:25:17.503Z,25.60
2022-08-26T18:27:46.392Z,25.60
2022-08-26T18:30:16.793Z,25.60
2022-08-26T18:33:05.854Z,25.60
2022-08-26T18:35:34.540Z,25.50
2022-08-26T18:38:10.515Z,25.50
2022-08-26T18:40:40.335Z,25.50
2022-08-26T18:43:08.886Z,25.50
2022-08-26T18:45:37.543Z,25.40
2022-08-26T18:48:07.558Z,25.40
2022-08-26T18:50:40.046Z,25.30
2022-08-26T18:53:08.889Z,25.30
2022-08-26T18:55:37.439Z,25.30
2022-08-26T18:58:06.065Z,25.20
2022-08-26T19:00:34.576Z,25.20
2022-08-26T19:03:03.144Z,25.20
2022-08-26T19:05:33.710Z,25.10
2022-08-26T19:08:02.393Z,25.10
2022-08-26T19:10:31.242Z,25.10
2022-08-26T19:13:09.830Z,25.00
2022-08-26T19:15:38.940Z,25.00
2022-08-26T19:18:07.970Z,25.00
2022-08-26T19:20:40.660Z,24.80
2022-08-26T19:23:30.482Z,24.90
2022-08-26T19:26:00.578Z,24.90
2022-08-26T19:28:29.220Z,24.80
2022-08-26T19:30:57.882Z,24.80
2022-08-26T19:33:26.945Z,24.70
2022-08-26T19:35:57.231Z,24.70
2022-08-26T19:38:25.935Z,24.70
2022-08-26T19:40:56.457Z,24.70
2022-08-26T19:43:24.966Z,24.60
2022-08-26T19:45:53.733Z,24.60
2022-08-26T19:48:22.355Z,24.60
2022-08-26T19:50:50.940Z,24.60
2022-08-26T19:53:20.967Z,24.60
2022-08-26T19:55:49.709Z,24.50
2022-08-26T19:58:18.287Z,24.50
2022-08-26T20:00:47.141Z,24.50
2022-08-26T20:03:16.172Z,24.50
2022-08-26T20:05:45.118Z,24.40
2022-08-26T20:08:22.555Z,24.40
2022-08-26T20:10:53.229Z,24.40
2022-08-26T20:13:22.213Z,24.40
2022-08-26T20:15:50.649Z,24.30
2022-08-26T20:18:36.699Z,24.30
2022-08-26T20:21:22.435Z,24.30
2022-08-26T20:23:51.625Z,24.20
2022-08-26T20:26:21.663Z,24.20
2022-08-26T20:28:50.949Z,24.20
2022-08-26T20:31:19.897Z,24.10
2022-08-26T20:33:48.940Z,24.10
2022-08-26T20:36:20.584Z,24.00
2022-08-26T20:39:07.699Z,24.00
2022-08-26T20:41:37.907Z,24.00
2022-08-26T20:44:06.706Z,23.90
2022-08-26T20:46:36.305Z,23.90
2022-08-26T20:49:06.016Z,23.80
2022-08-26T20:51:37.485Z,23.80
2022-08-26T20:54:07.199Z,23.80
2022-08-26T20:56:36.474Z,23.80
2022-08-26T20:59:07.463Z,23.70
2022-08-26T21:01:36.935Z,23.70
2022-08-26T21:04:29.527Z,23.60
2022-08-26T21:06:58.572Z,23.60
2022-08-26T21:09:27.518Z,23.60
2022-08-26T21:11:57.681Z,23.50
2022-08-26T21:14:27.583Z,23.50
2022-08-26T21:16:56.620Z,23.50
2022-08-26T21:19:25.359Z,23.40
2022-08-26T21:21:54.042Z,23.40
2022-08-26T21:24:22.701Z,23.30
2022-08-26T21:26:51.375Z,23.30
2022-08-26T21:29:22.145Z,23.30
2022-08-26T21:31:52.246Z,23.30
2022-08-26T21:34:21.515Z,23.20
2022-08-26T21:36:50.437Z,23.20
2022-08-26T21:39:19.248Z,23.20
2022-08-26T21:41:47.835Z,23.20
2022-08-26T21:44:17.093Z,23.20
2022-08-26T21:46:46.788Z,23.10
2022-08-26T21:49:17.571Z,23.10
2022-08-26T21:51:47.108Z,23.10
2022-08-26T21:54:16.799Z,23.00
2022-08-26T21:56:46.870Z,23.00
2022-08-26T21:59:16.204Z,23.00
2022-08-26T22:01:44.871Z,23.00
2022-08-26T22:04:13.459Z,23.00
2022-08-26T22:06:44.513Z,22.90
2022-08-26T22:09:13.619Z,22.90
2022-08-26T22:11:42.294Z,22.80
2022-08-26T22:14:10.913Z,22.90
2022-08-26T22:16:39.721Z,22.90
2022-08-26T22:19:08.386Z,22.90
2022-08-26T22:21:45.527Z,22.80
2022-08-26T22:24:15.337Z,22.80
2022-08-26T22:26:44.047Z,22.80
2022-08-26T22:29:12.811Z,22.80
2022-08-26T22:31:41.841Z,22.80
2022-08-26T22:34:11.695Z,22.80
2022-08-26T22:36:44.778Z,22.80
2022-08-26T22:39:14.225Z,22.80
2022-08-26T22:41:43.259Z,22.80
2022-08-26T22:44:12.161Z,22.80
2022-08-26T22:46:41.414Z,22.80
2022-08-26T22:49:10.384Z,22.80
2022-08-26T22:51:38.980Z,22.70
2022-08-26T22:54:09.129Z,22.70
2022-08-26T22:56:38.228Z,22.70
2022-08-26T22:59:06.918Z,22.70
2022-08-26T23:01:36.613Z,22.60
2022-08-26T23:04:06.848Z,22.60
2022-08-26T23:06:36.608Z,22.60
2022-08-26T23:09:05.654Z,22.50
2022-08-26T23:11:35.739Z,22.50
2022-08-26T23:14:06.254Z,22.50
2022-08-26T23:16:37.987Z,22.50
2022-08-26T23:19:08.608Z,22.40
2022-08-26T23:21:37.141Z,22.30
2022-08-26T23:24:06.088Z,22.30
2022-08-26T23:26:36.674Z,22.40
2022-08-26T23:29:06.069Z,22.20
2022-08-26T23:31:34.959Z,22.20
2022-08-26T23:34:26.380Z,22.20
2022-08-26T23:36:58.409Z,22.20
2022-08-26T23:39:27.266Z,22.10
2022-08-26T23:41:57.663Z,22.10
2022-08-26T23:44:26.915Z,22.10
2022-08-26T23:46:55.604Z,22.10
2022-08-26T23:49:24.604Z,22.10
2022-08-26T23:52:10.320Z,22.00
2022-08-26T23:54:39.393Z,22.00
2022-08-26T23:57:09.741Z,22.00
2022-08-26T23:59:38.809Z,22.00
